(°F)
60°
59°
59°
59°
59°
60°
60°
(°F)
57°
57°
56°
56°
56°
56°
56°
S
S
S
S
S
S
SSW
(mph)
4-8
4-8
5-9
5-9
5-9
6-10
7-12
(in)
0
0
0
0
0
0
0
(%)
0
0
0
0
0
0
0

Sun elevation

/ -10.2°
sun-icon
UV 8
05:47
19:42
Waning gibbous moon (199°)
22:00
06:56

METAR for San Diego (KSAN)

Time Conditions Temperature/
Dewpoint
Wind Visibility Weather Clouds Pressure Change Raw
MVFR 60.08°F / 53.06°F 180º 5kt >10km - Overcast 1500ft 1014 - KSAN 171051Z 18005KT 10SM OVC015 16/12 A2997 RMK AO2 SLP148 T01560117
MVFR 60.08°F / 53.06°F 180º 5kt >10km - Overcast 1600ft 1014 - KSAN 170951Z 18005KT 10SM OVC016 16/12 A2997 RMK AO2 SLP148 T01560117
MVFR 60.08°F / 53.06°F 240º 6kt >10km - Overcast 1600ft 1014 - KSAN 170851Z 24006KT 10SM OVC016 16/12 A2997 RMK AO2 SLP147 T01560117 58002
MVFR 60.08°F / 53.06°F 270º 6kt >10km - Overcast 1500ft 1014 - KSAN 170751Z 27006KT 10SM OVC015 16/12 A2997 RMK AO2 SLP149 T01560117 401940144
MVFR 60.08°F / 53.96°F 230º 4kt >10km - Overcast 1500ft - KSAN 170733Z 23004KT 10SM OVC015 16/12 A2998 RMK AO2 T01560122
MVFR 60.08°F / 53.96°F variable 0kt >10km - Overcast 1300ft 1015 - KSAN 170651Z 00000KT 10SM OVC013 16/12 A2997 RMK AO2 SLP150 T01560122
MVFR 60.08°F / 53.96°F 250º 6kt >10km - Overcast 1300ft 1014 - KSAN 170551Z 25006KT 10SM OVC013 16/12 A2997 RMK AO2 SLP149 T01560122 10178 20156 51010
MVFR 60.08°F / 55.04°F 270º 3kt >10km - Overcast 1300ft 1014 - KSAN 170451Z 27003KT 10SM OVC013 16/13 A2997 RMK AO2 SLP146 T01560128
MVFR 60.98°F / 55.04°F 260º 6kt >10km - Broken Clouds 1300ft 1014 - KSAN 170351Z 26006KT 10SM BKN013 16/13 A2996 RMK AO2 SLP144 T01610128
MVFR 60.98°F / 55.04°F 270º 5kt >10km - Broken Clouds 1400ft 1013 - KSAN 170251Z 27005KT 9SM BKN014 16/13 A2994 RMK AO2 SLP139 T01610128 53003
MVFR 62.06°F / 55.04°F 300º 6kt >10km - Broken Clouds 1400ft 1013 - KSAN 170151Z 30006KT 10SM BKN014 17/13 A2994 RMK AO2 SLP137 BKN V SCT T01670128
MVFR 62.96°F / 55.04°F 310º 6kt >10km - Broken Clouds 1400ft 1013 - KSAN 170051Z 31006KT 10SM BKN014 17/13 A2993 RMK AO2 SLP136 T01720128
MVFR 62.96°F / 55.04°F 300º 7kt >10km - Broken Clouds 1400ft - KSAN 170042Z 30007KT 10SM BKN014 17/13 A2993 RMK AO2 T01720128
MVFR 62.96°F / 55.04°F 280º 7kt >10km - Broken Clouds 1600ft - KSAN 170029Z 28007KT 10SM BKN016 17/13 A2993 RMK AO2 T01720128
VFR 64.04°F / 55.04°F 280º 7kt >10km - Scattered Clouds 1500ft 1013 - KSAN 162351Z 28007KT 10SM SCT015 18/13 A2993 RMK AO2 SLP135 T01780128 10194 20172 57010
VFR 64.94°F / 55.04°F 280º 9kt >10km - Scattered Clouds 1500ft 1013 - KSAN 162251Z 28009KT 10SM SCT015 18/13 A2994 RMK AO2 SLP138 T01830128
VFR 64.94°F / 55.04°F 210º 6kt >10km - Few Clouds 1500ft 1014 - KSAN 162151Z 21006KT 10SM FEW015 18/13 A2995 RMK AO2 SLP143 T01830128
VFR 64.94°F / 55.04°F 210º 8kt >10km - Few Clouds 1500ft 1014 - KSAN 162051Z 21008KT 10SM FEW015 18/13 A2996 RMK AO2 SLP145 T01830128 58006
VFR 66.02°F / 55.04°F 210º 9kt >10km - Scattered Clouds 1500ft 1014 - KSAN 161951Z 21009KT 10SM SCT015 19/13 A2997 RMK AO2 SLP147 T01890128
VFR 64.04°F / 55.04°F 210º 8kt >10km - Clear 1015 - KSAN 161851Z 21008KT 10SM CLR 18/13 A2998 RMK AO2 SLP151 T01780128
VFR 62.96°F / 53.96°F 260º 6kt >10km - Scattered Clouds 1500ft 1015 - KSAN 161751Z 26006KT 10SM SCT015 17/12 A2998 RMK AO2 SLP152 T01720122 10172 20144 50000
VFR 62.96°F / 53.96°F 220º 4kt >10km - Scattered Clouds 1500ft - KSAN 161740Z 22004KT 10SM SCT015 17/12 A2998 RMK AO2 T01720122
MVFR 62.06°F / 53.96°F 210º 5kt >10km - Overcast 1500ft - KSAN 161721Z 21005KT 10SM OVC015 17/12 A2998 RMK AO2 T01670122
MVFR 60.98°F / 53.96°F variable 6kt >10km - Overcast 1400ft 1015 - KSAN 161651Z VRB06KT 10SM OVC014 16/12 A2999 RMK AO2 SLP153 T01610122

MVFR

60.08°F / 53.06°F

[More]
Wind 180º 5kt
Visibility >10km
Weather -
Clouds Overcast 1500ft
Pressure 1014
Change -
Raw KSAN 171051Z 18005KT 10SM OVC015 16/12 A2997 RMK AO2 SLP148 T01560117

MVFR

60.08°F / 53.06°F

[More]
Wind 180º 5kt
Visibility >10km
Weather -
Clouds Overcast 1600ft
Pressure 1014
Change -
Raw KSAN 170951Z 18005KT 10SM OVC016 16/12 A2997 RMK AO2 SLP148 T01560117

MVFR

60.08°F / 53.06°F

[More]
Wind 240º 6kt
Visibility >10km
Weather -
Clouds Overcast 1600ft
Pressure 1014
Change -
Raw KSAN 170851Z 24006KT 10SM OVC016 16/12 A2997 RMK AO2 SLP147 T01560117 58002

MVFR

60.08°F / 53.06°F

[More]
Wind 270º 6kt
Visibility >10km
Weather -
Clouds Overcast 1500ft
Pressure 1014
Change -
Raw KSAN 170751Z 27006KT 10SM OVC015 16/12 A2997 RMK AO2 SLP149 T01560117 401940144

MVFR

60.08°F / 53.96°F

[More]
Wind 230º 4kt
Visibility >10km
Weather -
Clouds Overcast 1500ft
Pressure
Change -
Raw KSAN 170733Z 23004KT 10SM OVC015 16/12 A2998 RMK AO2 T01560122

MVFR

60.08°F / 53.96°F

[More]
Wind variable 0kt
Visibility >10km
Weather -
Clouds Overcast 1300ft
Pressure 1015
Change -
Raw KSAN 170651Z 00000KT 10SM OVC013 16/12 A2997 RMK AO2 SLP150 T01560122

MVFR

60.08°F / 53.96°F

[More]
Wind 250º 6kt
Visibility >10km
Weather -
Clouds Overcast 1300ft
Pressure 1014
Change -
Raw KSAN 170551Z 25006KT 10SM OVC013 16/12 A2997 RMK AO2 SLP149 T01560122 10178 20156 51010

MVFR

60.08°F / 55.04°F

[More]
Wind 270º 3kt
Visibility >10km
Weather -
Clouds Overcast 1300ft
Pressure 1014
Change -
Raw KSAN 170451Z 27003KT 10SM OVC013 16/13 A2997 RMK AO2 SLP146 T01560128

MVFR

60.98°F / 55.04°F

[More]
Wind 260º 6kt
Visibility >10km
Weather -
Clouds Broken Clouds 1300ft
Pressure 1014
Change -
Raw KSAN 170351Z 26006KT 10SM BKN013 16/13 A2996 RMK AO2 SLP144 T01610128

MVFR

60.98°F / 55.04°F

[More]
Wind 270º 5kt
Visibility >10km
Weather -
Clouds Broken Clouds 1400ft
Pressure 1013
Change -
Raw KSAN 170251Z 27005KT 9SM BKN014 16/13 A2994 RMK AO2 SLP139 T01610128 53003

MVFR

62.06°F / 55.04°F

[More]
Wind 300º 6kt
Visibility >10km
Weather -
Clouds Broken Clouds 1400ft
Pressure 1013
Change -
Raw KSAN 170151Z 30006KT 10SM BKN014 17/13 A2994 RMK AO2 SLP137 BKN V SCT T01670128

MVFR

62.96°F / 55.04°F

[More]
Wind 310º 6kt
Visibility >10km
Weather -
Clouds Broken Clouds 1400ft
Pressure 1013
Change -
Raw KSAN 170051Z 31006KT 10SM BKN014 17/13 A2993 RMK AO2 SLP136 T01720128

MVFR

62.96°F / 55.04°F

[More]
Wind 300º 7kt
Visibility >10km
Weather -
Clouds Broken Clouds 1400ft
Pressure
Change -
Raw KSAN 170042Z 30007KT 10SM BKN014 17/13 A2993 RMK AO2 T01720128

MVFR

62.96°F / 55.04°F

[More]
Wind 280º 7kt
Visibility >10km
Weather -
Clouds Broken Clouds 1600ft
Pressure
Change -
Raw KSAN 170029Z 28007KT 10SM BKN016 17/13 A2993 RMK AO2 T01720128

VFR

64.04°F / 55.04°F

[More]
Wind 280º 7kt
Visibility >10km
Weather -
Clouds Scattered Clouds 1500ft
Pressure 1013
Change -
Raw KSAN 162351Z 28007KT 10SM SCT015 18/13 A2993 RMK AO2 SLP135 T01780128 10194 20172 57010

VFR

64.94°F / 55.04°F

[More]
Wind 280º 9kt
Visibility >10km
Weather -
Clouds Scattered Clouds 1500ft
Pressure 1013
Change -
Raw KSAN 162251Z 28009KT 10SM SCT015 18/13 A2994 RMK AO2 SLP138 T01830128

VFR

64.94°F / 55.04°F

[More]
Wind 210º 6kt
Visibility >10km
Weather -
Clouds Few Clouds 1500ft
Pressure 1014
Change -
Raw KSAN 162151Z 21006KT 10SM FEW015 18/13 A2995 RMK AO2 SLP143 T01830128

VFR

64.94°F / 55.04°F

[More]
Wind 210º 8kt
Visibility >10km
Weather -
Clouds Few Clouds 1500ft
Pressure 1014
Change -
Raw KSAN 162051Z 21008KT 10SM FEW015 18/13 A2996 RMK AO2 SLP145 T01830128 58006

VFR

66.02°F / 55.04°F

[More]
Wind 210º 9kt
Visibility >10km
Weather -
Clouds Scattered Clouds 1500ft
Pressure 1014
Change -
Raw KSAN 161951Z 21009KT 10SM SCT015 19/13 A2997 RMK AO2 SLP147 T01890128

VFR

64.04°F / 55.04°F

[More]
Wind 210º 8kt
Visibility >10km
Weather -
Clouds Clear
Pressure 1015
Change -
Raw KSAN 161851Z 21008KT 10SM CLR 18/13 A2998 RMK AO2 SLP151 T01780128

VFR

62.96°F / 53.96°F

[More]
Wind 260º 6kt
Visibility >10km
Weather -
Clouds Scattered Clouds 1500ft
Pressure 1015
Change -
Raw KSAN 161751Z 26006KT 10SM SCT015 17/12 A2998 RMK AO2 SLP152 T01720122 10172 20144 50000

VFR

62.96°F / 53.96°F

[More]
Wind 220º 4kt
Visibility >10km
Weather -
Clouds Scattered Clouds 1500ft
Pressure
Change -
Raw KSAN 161740Z 22004KT 10SM SCT015 17/12 A2998 RMK AO2 T01720122

MVFR

62.06°F / 53.96°F

[More]
Wind 210º 5kt
Visibility >10km
Weather -
Clouds Overcast 1500ft
Pressure
Change -
Raw KSAN 161721Z 21005KT 10SM OVC015 17/12 A2998 RMK AO2 T01670122

MVFR

60.98°F / 53.96°F

[More]
Wind variable 6kt
Visibility >10km
Weather -
Clouds Overcast 1400ft
Pressure 1015
Change -
Raw KSAN 161651Z VRB06KT 10SM OVC014 16/12 A2999 RMK AO2 SLP153 T01610122

TAF for San Diego (KSAN)

From till


From till Wind 180º 5kt. Visibility 10km or more. Overcast 1500ft.
From till Wind 210º 9kt. Visibility 10km or more. Scattered Clouds 1800ft.
From till Wind 180º 5kt. Visibility 10km or more. Overcast 1800ft.
From till Wind 210º 5kt. Visibility 10km or more. Scattered Clouds 2000ft.

Raw: KSAN 171126Z 1712/1818 18005KT P6SM OVC015 FM171800 21009KT P6SM SCT018 FM180200 18005KT P6SM OVC018 FM181600 21005KT P6SM SCT020

Radar and precipitation nowcast for San Diego

Drizzle
Light
Moderate
Heavy
Very Heavy
Hail

The location marker is placed on San Diego. This animation shows the precipitation radar for the last hour, as well as a 1h forecast. Drizzle or light snow fall might be invisible for the radar. Precipitation intensity is colour coded, ranging from light blue to orange.

Current satellite images for San Diego, United States

The location marker is placed on San Diego. [More]

The real-time satellite image combines visible light during daytime with infrared radiation during nighttime. At night, the image is not dark as infrared radiation can detect temperature differences. Unfortunately, low clouds and fog are difficult to distinguish from ground temperatures and thus can be almost invisible during the night. Meteosat satellite images for Europe are updated in real-time every 5 minutes. GOES-16/GOES-17 (North & South America) and Himawari (Asia) images update every 10 minutes.

Back to top